sensor_id;sensor_type;location;lat;lon;timestamp;P1;durP1;ratioP1;P2;durP2;ratioP2
62941;SDS011;49042;47.318;19.874;2023-04-15T00:02:19;9.50;;;6.30;;
62941;SDS011;49042;47.318;19.874;2023-04-15T00:05:21;10.52;;;6.65;;
62941;SDS011;49042;47.318;19.874;2023-04-15T00:08:23;13.32;;;6.45;;
62941;SDS011;49042;47.318;19.874;2023-04-15T00:11:24;15.15;;;6.57;;
62941;SDS011;49042;47.318;19.874;2023-04-15T00:14:26;10.02;;;6.43;;
62941;SDS011;49042;47.318;19.874;2023-04-15T00:17:28;8.60;;;6.62;;
62941;SDS011;49042;47.318;19.874;2023-04-15T00:20:30;12.57;;;7.35;;
62941;SDS011;49042;47.318;19.874;2023-04-15T00:23:32;12.02;;;6.95;;
62941;SDS011;49042;47.318;19.874;2023-04-15T00:26:34;9.27;;;6.50;;
62941;SDS011;49042;47.318;19.874;2023-04-15T00:29:36;10.27;;;7.40;;
62941;SDS011;49042;47.318;19.874;2023-04-15T00:32:37;9.40;;;6.97;;
62941;SDS011;49042;47.318;19.874;2023-04-15T00:35:39;11.80;;;6.72;;
62941;SDS011;49042;47.318;19.874;2023-04-15T00:38:40;10.63;;;7.30;;
62941;SDS011;49042;47.318;19.874;2023-04-15T00:41:43;9.57;;;7.62;;
62941;SDS011;49042;47.318;19.874;2023-04-15T00:44:45;10.63;;;7.15;;
62941;SDS011;49042;47.318;19.874;2023-04-15T00:47:47;10.77;;;7.68;;
62941;SDS011;49042;47.318;19.874;2023-04-15T00:50:50;9.70;;;7.37;;
62941;SDS011;49042;47.318;19.874;2023-04-15T00:53:52;10.27;;;6.50;;
62941;SDS011;49042;47.318;19.874;2023-04-15T00:56:53;10.68;;;7.07;;
62941;SDS011;49042;47.318;19.874;2023-04-15T00:59:55;10.70;;;7.10;;
62941;SDS011;49042;47.318;19.874;2023-04-15T01:02:58;11.23;;;7.53;;
62941;SDS011;49042;47.318;19.874;2023-04-15T01:06:00;9.10;;;7.10;;
62941;SDS011;49042;47.318;19.874;2023-04-15T01:09:04;11.52;;;7.35;;
62941;SDS011;49042;47.318;19.874;2023-04-15T01:12:06;11.00;;;8.38;;
62941;SDS011;49042;47.318;19.874;2023-04-15T01:15:12;12.95;;;7.47;;
62941;SDS011;49042;47.318;19.874;2023-04-15T01:18:14;10.35;;;7.85;;
62941;SDS011;49042;47.318;19.874;2023-04-15T01:21:16;9.23;;;7.03;;
62941;SDS011;49042;47.318;19.874;2023-04-15T01:24:18;11.10;;;7.37;;
62941;SDS011;49042;47.318;19.874;2023-04-15T01:27:20;11.82;;;8.10;;
62941;SDS011;49042;47.318;19.874;2023-04-15T01:30:22;13.30;;;8.52;;
62941;SDS011;49042;47.318;19.874;2023-04-15T01:33:24;10.38;;;8.05;;
62941;SDS011;49042;47.318;19.874;2023-04-15T01:36:26;11.50;;;8.10;;
62941;SDS011;49042;47.318;19.874;2023-04-15T01:39:28;10.80;;;8.10;;
62941;SDS011;49042;47.318;19.874;2023-04-15T01:42:30;11.57;;;7.97;;
62941;SDS011;49042;47.318;19.874;2023-04-15T01:45:31;10.25;;;7.87;;
62941;SDS011;49042;47.318;19.874;2023-04-15T01:48:33;9.38;;;7.40;;
62941;SDS011;49042;47.318;19.874;2023-04-15T01:51:35;11.57;;;7.55;;
62941;SDS011;49042;47.318;19.874;2023-04-15T01:54:36;11.98;;;7.35;;
62941;SDS011;49042;47.318;19.874;2023-04-15T01:57:38;12.63;;;7.65;;
62941;SDS011;49042;47.318;19.874;2023-04-15T02:00:40;12.18;;;7.45;;
62941;SDS011;49042;47.318;19.874;2023-04-15T02:03:42;11.70;;;7.97;;
62941;SDS011;49042;47.318;19.874;2023-04-15T02:06:43;13.15;;;8.15;;
62941;SDS011;49042;47.318;19.874;2023-04-15T02:09:46;12.30;;;7.90;;
62941;SDS011;49042;47.318;19.874;2023-04-15T02:12:48;9.57;;;7.30;;
62941;SDS011;49042;47.318;19.874;2023-04-15T02:15:49;11.25;;;7.50;;
62941;SDS011;49042;47.318;19.874;2023-04-15T02:18:52;8.40;;;6.87;;
62941;SDS011;49042;47.318;19.874;2023-04-15T02:21:54;9.23;;;7.18;;
62941;SDS011;49042;47.318;19.874;2023-04-15T02:24:56;9.50;;;6.78;;
62941;SDS011;49042;47.318;19.874;2023-04-15T02:27:57;9.93;;;6.65;;
62941;SDS011;49042;47.318;19.874;2023-04-15T02:30:59;10.02;;;6.93;;
62941;SDS011;49042;47.318;19.874;2023-04-15T02:34:02;7.70;;;6.50;;
62941;SDS011;49042;47.318;19.874;2023-04-15T02:37:04;9.18;;;6.93;;
62941;SDS011;49042;47.318;19.874;2023-04-15T02:40:07;10.13;;;6.55;;
62941;SDS011;49042;47.318;19.874;2023-04-15T02:43:12;9.40;;;6.57;;
62941;SDS011;49042;47.318;19.874;2023-04-15T02:46:14;7.78;;;6.22;;
62941;SDS011;49042;47.318;19.874;2023-04-15T02:49:15;10.60;;;5.65;;
62941;SDS011;49042;47.318;19.874;2023-04-15T02:52:17;9.63;;;6.03;;
62941;SDS011;49042;47.318;19.874;2023-04-15T02:55:19;7.47;;;5.68;;
62941;SDS011;49042;47.318;19.874;2023-04-15T02:58:21;8.23;;;5.95;;
62941;SDS011;49042;47.318;19.874;2023-04-15T03:01:22;8.27;;;6.40;;
62941;SDS011;49042;47.318;19.874;2023-04-15T03:04:24;8.90;;;6.07;;
62941;SDS011;49042;47.318;19.874;2023-04-15T03:07:26;9.20;;;5.75;;
62941;SDS011;49042;47.318;19.874;2023-04-15T03:10:27;10.05;;;6.00;;
62941;SDS011;49042;47.318;19.874;2023-04-15T03:13:29;9.45;;;6.18;;
62941;SDS011;49042;47.318;19.874;2023-04-15T03:16:31;6.90;;;6.10;;
62941;SDS011;49042;47.318;19.874;2023-04-15T03:19:33;8.38;;;6.50;;
62941;SDS011;49042;47.318;19.874;2023-04-15T03:22:35;8.65;;;6.43;;
62941;SDS011;49042;47.318;19.874;2023-04-15T03:25:36;8.20;;;6.10;;
62941;SDS011;49042;47.318;19.874;2023-04-15T03:28:38;8.13;;;6.03;;
62941;SDS011;49042;47.318;19.874;2023-04-15T03:31:40;9.45;;;6.32;;
62941;SDS011;49042;47.318;19.874;2023-04-15T03:34:42;7.15;;;5.70;;
62941;SDS011;49042;47.318;19.874;2023-04-15T03:37:43;8.25;;;6.65;;
62941;SDS011;49042;47.318;19.874;2023-04-15T03:40:45;11.18;;;7.30;;
62941;SDS011;49042;47.318;19.874;2023-04-15T03:43:47;10.73;;;7.35;;
62941;SDS011;49042;47.318;19.874;2023-04-15T03:46:48;8.85;;;6.68;;
62941;SDS011;49042;47.318;19.874;2023-04-15T03:49:51;9.93;;;6.43;;
62941;SDS011;49042;47.318;19.874;2023-04-15T03:52:54;10.18;;;6.40;;
62941;SDS011;49042;47.318;19.874;2023-04-15T03:55:55;7.72;;;6.53;;
62941;SDS011;49042;47.318;19.874;2023-04-15T03:58:57;8.98;;;6.60;;
62941;SDS011;49042;47.318;19.874;2023-04-15T04:01:59;13.43;;;7.43;;
62941;SDS011;49042;47.318;19.874;2023-04-15T04:05:01;14.90;;;7.78;;
62941;SDS011;49042;47.318;19.874;2023-04-15T04:08:03;9.27;;;6.87;;
62941;SDS011;49042;47.318;19.874;2023-04-15T04:11:05;13.85;;;7.25;;
62941;SDS011;49042;47.318;19.874;2023-04-15T04:14:06;10.90;;;7.20;;
62941;SDS011;49042;47.318;19.874;2023-04-15T04:17:08;9.63;;;6.45;;
62941;SDS011;49042;47.318;19.874;2023-04-15T04:20:10;10.27;;;7.82;;
62941;SDS011;49042;47.318;19.874;2023-04-15T04:23:12;9.18;;;7.30;;
62941;SDS011;49042;47.318;19.874;2023-04-15T04:26:14;10.88;;;7.78;;
62941;SDS011;49042;47.318;19.874;2023-04-15T04:29:16;11.30;;;7.10;;
62941;SDS011;49042;47.318;19.874;2023-04-15T04:32:18;16.50;;;7.40;;
62941;SDS011;49042;47.318;19.874;2023-04-15T04:35:19;14.15;;;7.53;;
62941;SDS011;49042;47.318;19.874;2023-04-15T04:38:22;9.90;;;6.62;;
62941;SDS011;49042;47.318;19.874;2023-04-15T04:41:23;9.77;;;6.45;;
62941;SDS011;49042;47.318;19.874;2023-04-15T04:44:25;10.38;;;7.47;;
62941;SDS011;49042;47.318;19.874;2023-04-15T04:47:27;9.80;;;7.15;;
62941;SDS011;49042;47.318;19.874;2023-04-15T04:50:30;11.57;;;7.28;;
62941;SDS011;49042;47.318;19.874;2023-04-15T04:53:32;10.80;;;7.35;;
62941;SDS011;49042;47.318;19.874;2023-04-15T04:56:34;14.73;;;7.93;;
62941;SDS011;49042;47.318;19.874;2023-04-15T04:59:36;9.90;;;7.43;;
62941;SDS011;49042;47.318;19.874;2023-04-15T05:02:38;18.50;;;7.85;;
62941;SDS011;49042;47.318;19.874;2023-04-15T05:05:40;14.65;;;8.00;;
62941;SDS011;49042;47.318;19.874;2023-04-15T05:08:41;17.73;;;7.37;;
62941;SDS011;49042;47.318;19.874;2023-04-15T05:11:43;9.93;;;6.72;;
62941;SDS011;49042;47.318;19.874;2023-04-15T05:14:45;13.05;;;8.27;;
62941;SDS011;49042;47.318;19.874;2023-04-15T05:17:47;12.37;;;7.87;;
62941;SDS011;49042;47.318;19.874;2023-04-15T05:20:48;11.20;;;7.05;;
62941;SDS011;49042;47.318;19.874;2023-04-15T05:23:50;12.18;;;7.97;;
62941;SDS011;49042;47.318;19.874;2023-04-15T05:26:52;9.82;;;6.93;;
62941;SDS011;49042;47.318;19.874;2023-04-15T05:29:54;14.27;;;9.68;;
62941;SDS011;49042;47.318;19.874;2023-04-15T05:32:56;23.30;;;12.57;;
62941;SDS011;49042;47.318;19.874;2023-04-15T05:35:58;12.10;;;8.23;;
62941;SDS011;49042;47.318;19.874;2023-04-15T05:39:00;22.65;;;10.70;;
62941;SDS011;49042;47.318;19.874;2023-04-15T05:42:02;21.23;;;11.15;;
62941;SDS011;49042;47.318;19.874;2023-04-15T05:45:06;14.05;;;8.50;;
62941;SDS011;49042;47.318;19.874;2023-04-15T05:48:09;12.95;;;7.55;;
62941;SDS011;49042;47.318;19.874;2023-04-15T05:51:11;15.95;;;9.38;;
62941;SDS011;49042;47.318;19.874;2023-04-15T05:54:12;10.82;;;7.60;;
62941;SDS011;49042;47.318;19.874;2023-04-15T05:57:14;15.40;;;9.63;;
62941;SDS011;49042;47.318;19.874;2023-04-15T06:00:16;11.30;;;6.35;;
62941;SDS011;49042;47.318;19.874;2023-04-15T06:03:18;11.88;;;6.62;;
62941;SDS011;49042;47.318;19.874;2023-04-15T06:06:20;8.88;;;6.20;;
62941;SDS011;49042;47.318;19.874;2023-04-15T06:09:21;12.98;;;7.20;;
62941;SDS011;49042;47.318;19.874;2023-04-15T06:12:23;17.45;;;10.32;;
62941;SDS011;49042;47.318;19.874;2023-04-15T06:15:25;11.80;;;7.00;;
62941;SDS011;49042;47.318;19.874;2023-04-15T06:18:26;11.52;;;7.20;;
62941;SDS011;49042;47.318;19.874;2023-04-15T06:21:28;13.10;;;7.95;;
62941;SDS011;49042;47.318;19.874;2023-04-15T06:24:30;10.48;;;6.03;;
62941;SDS011;49042;47.318;19.874;2023-04-15T06:27:33;9.80;;;5.00;;
62941;SDS011;49042;47.318;19.874;2023-04-15T06:30:35;8.30;;;5.47;;
62941;SDS011;49042;47.318;19.874;2023-04-15T06:33:37;7.68;;;5.78;;
62941;SDS011;49042;47.318;19.874;2023-04-15T06:36:39;12.48;;;6.35;;
62941;SDS011;49042;47.318;19.874;2023-04-15T06:39:41;7.93;;;5.80;;
62941;SDS011;49042;47.318;19.874;2023-04-15T06:42:43;7.32;;;5.07;;
62941;SDS011;49042;47.318;19.874;2023-04-15T06:45:45;9.50;;;4.72;;
62941;SDS011;49042;47.318;19.874;2023-04-15T06:48:47;6.80;;;3.80;;
62941;SDS011;49042;47.318;19.874;2023-04-15T06:51:49;5.05;;;3.65;;
62941;SDS011;49042;47.318;19.874;2023-04-15T06:54:51;5.55;;;3.42;;
62941;SDS011;49042;47.318;19.874;2023-04-15T06:57:53;6.03;;;3.92;;
62941;SDS011;49042;47.318;19.874;2023-04-15T07:00:55;6.07;;;3.45;;
62941;SDS011;49042;47.318;19.874;2023-04-15T07:03:57;5.70;;;3.42;;
62941;SDS011;49042;47.318;19.874;2023-04-15T07:06:58;5.10;;;3.53;;
62941;SDS011;49042;47.318;19.874;2023-04-15T07:10:02;6.43;;;3.35;;
62941;SDS011;49042;47.318;19.874;2023-04-15T07:13:05;5.53;;;3.70;;
62941;SDS011;49042;47.318;19.874;2023-04-15T07:16:09;4.87;;;2.92;;
62941;SDS011;49042;47.318;19.874;2023-04-15T07:19:10;5.87;;;2.90;;
62941;SDS011;49042;47.318;19.874;2023-04-15T07:22:12;9.70;;;3.03;;
62941;SDS011;49042;47.318;19.874;2023-04-15T07:25:14;3.65;;;2.50;;
62941;SDS011;49042;47.318;19.874;2023-04-15T07:28:15;4.30;;;1.87;;
62941;SDS011;49042;47.318;19.874;2023-04-15T07:31:17;4.50;;;2.22;;
62941;SDS011;49042;47.318;19.874;2023-04-15T07:34:19;2.37;;;1.90;;
62941;SDS011;49042;47.318;19.874;2023-04-15T07:37:21;3.15;;;1.80;;
62941;SDS011;49042;47.318;19.874;2023-04-15T07:40:23;4.68;;;1.60;;
62941;SDS011;49042;47.318;19.874;2023-04-15T07:43:24;7.32;;;1.40;;
62941;SDS011;49042;47.318;19.874;2023-04-15T07:46:26;2.50;;;1.83;;
62941;SDS011;49042;47.318;19.874;2023-04-15T07:49:28;2.08;;;1.58;;
62941;SDS011;49042;47.318;19.874;2023-04-15T07:52:30;3.40;;;2.17;;
62941;SDS011;49042;47.318;19.874;2023-04-15T07:55:32;3.50;;;1.75;;
62941;SDS011;49042;47.318;19.874;2023-04-15T07:58:34;3.35;;;1.77;;
62941;SDS011;49042;47.318;19.874;2023-04-15T08:01:36;2.22;;;1.92;;
62941;SDS011;49042;47.318;19.874;2023-04-15T08:04:38;5.00;;;1.70;;
62941;SDS011;49042;47.318;19.874;2023-04-15T08:07:40;3.42;;;1.90;;
62941;SDS011;49042;47.318;19.874;2023-04-15T08:10:42;6.18;;;1.80;;
62941;SDS011;49042;47.318;19.874;2023-04-15T08:13:43;5.85;;;1.83;;
62941;SDS011;49042;47.318;19.874;2023-04-15T08:16:45;3.00;;;1.75;;
62941;SDS011;49042;47.318;19.874;2023-04-15T08:19:47;1.67;;;1.33;;
62941;SDS011;49042;47.318;19.874;2023-04-15T08:22:49;4.22;;;1.52;;
62941;SDS011;49042;47.318;19.874;2023-04-15T08:25:52;3.78;;;2.00;;
62941;SDS011;49042;47.318;19.874;2023-04-15T08:28:54;2.47;;;1.33;;
62941;SDS011;49042;47.318;19.874;2023-04-15T08:31:55;1.77;;;1.10;;
62941;SDS011;49042;47.318;19.874;2023-04-15T08:34:57;1.10;;;1.00;;
62941;SDS011;49042;47.318;19.874;2023-04-15T08:37:59;2.80;;;1.40;;
62941;SDS011;49042;47.318;19.874;2023-04-15T08:41:37;1.40;;;1.08;;
62941;SDS011;49042;47.318;19.874;2023-04-15T08:44:34;1.20;;;1.10;;
62941;SDS011;49042;47.318;19.874;2023-04-15T08:47:39;6.20;;;1.30;;
62941;SDS011;49042;47.318;19.874;2023-04-15T08:50:45;1.10;;;0.90;;
62941;SDS011;49042;47.318;19.874;2023-04-15T08:53:59;2.58;;;0.80;;
62941;SDS011;49042;47.318;19.874;2023-04-15T08:57:02;3.95;;;1.45;;
62941;SDS011;49042;47.318;19.874;2023-04-15T09:00:04;1.33;;;0.98;;
62941;SDS011;49042;47.318;19.874;2023-04-15T09:03:07;3.08;;;1.20;;
62941;SDS011;49042;47.318;19.874;2023-04-15T09:06:10;7.78;;;1.77;;
62941;SDS011;49042;47.318;19.874;2023-04-15T09:09:12;2.47;;;1.08;;
62941;SDS011;49042;47.318;19.874;2023-04-15T09:12:18;1.08;;;0.90;;
62941;SDS011;49042;47.318;19.874;2023-04-15T09:15:20;3.33;;;0.90;;
62941;SDS011;49042;47.318;19.874;2023-04-15T09:18:26;6.10;;;0.98;;
62941;SDS011;49042;47.318;19.874;2023-04-15T09:21:32;1.87;;;1.05;;
62941;SDS011;49042;47.318;19.874;2023-04-15T09:24:36;8.88;;;1.42;;
62941;SDS011;49042;47.318;19.874;2023-04-15T09:27:48;6.15;;;1.12;;
62941;SDS011;49042;47.318;19.874;2023-04-15T09:30:54;6.32;;;1.05;;
62941;SDS011;49042;47.318;19.874;2023-04-15T09:33:57;1.70;;;0.87;;
62941;SDS011;49042;47.318;19.874;2023-04-15T09:37:00;2.83;;;1.08;;
62941;SDS011;49042;47.318;19.874;2023-04-15T09:40:01;1.50;;;1.00;;
62941;SDS011;49042;47.318;19.874;2023-04-15T09:43:04;2.97;;;0.80;;
62941;SDS011;49042;47.318;19.874;2023-04-15T09:46:07;2.17;;;1.00;;
62941;SDS011;49042;47.318;19.874;2023-04-15T09:49:09;8.60;;;0.90;;
62941;SDS011;49042;47.318;19.874;2023-04-15T09:52:12;2.83;;;0.98;;
62941;SDS011;49042;47.318;19.874;2023-04-15T09:55:16;0.90;;;0.80;;
62941;SDS011;49042;47.318;19.874;2023-04-15T09:58:19;4.70;;;1.35;;
62941;SDS011;49042;47.318;19.874;2023-04-15T10:01:22;1.60;;;0.95;;
62941;SDS011;49042;47.318;19.874;2023-04-15T10:04:24;3.08;;;1.00;;
62941;SDS011;49042;47.318;19.874;2023-04-15T10:07:28;9.73;;;0.90;;
62941;SDS011;49042;47.318;19.874;2023-04-15T10:10:31;3.78;;;1.35;;
62941;SDS011;49042;47.318;19.874;2023-04-15T10:13:34;4.10;;;1.77;;
62941;SDS011;49042;47.318;19.874;2023-04-15T10:16:37;2.00;;;1.20;;
62941;SDS011;49042;47.318;19.874;2023-04-15T10:19:43;1.75;;;0.90;;
62941;SDS011;49042;47.318;19.874;2023-04-15T10:22:47;1.75;;;1.00;;
62941;SDS011;49042;47.318;19.874;2023-04-15T10:25:49;1.92;;;0.90;;
62941;SDS011;49042;47.318;19.874;2023-04-15T10:28:54;4.47;;;1.05;;
62941;SDS011;49042;47.318;19.874;2023-04-15T10:31:57;3.78;;;1.10;;
62941;SDS011;49042;47.318;19.874;2023-04-15T10:35:00;0.90;;;0.90;;
62941;SDS011;49042;47.318;19.874;2023-04-15T10:38:20;6.43;;;0.80;;
62941;SDS011;49042;47.318;19.874;2023-04-15T10:41:50;1.33;;;0.88;;
62941;SDS011;49042;47.318;19.874;2023-04-15T10:45:07;1.85;;;1.20;;
62941;SDS011;49042;47.318;19.874;2023-04-15T10:48:18;3.25;;;1.17;;
62941;SDS011;49042;47.318;19.874;2023-04-15T10:51:27;3.67;;;1.50;;
62941;SDS011;49042;47.318;19.874;2023-04-15T10:54:31;1.95;;;1.10;;
62941;SDS011;49042;47.318;19.874;2023-04-15T10:57:34;2.12;;;1.10;;
62941;SDS011;49042;47.318;19.874;2023-04-15T11:00:39;2.22;;;1.23;;
62941;SDS011;49042;47.318;19.874;2023-04-15T11:03:41;1.45;;;1.02;;
62941;SDS011;49042;47.318;19.874;2023-04-15T11:06:44;2.67;;;1.25;;
62941;SDS011;49042;47.318;19.874;2023-04-15T11:09:48;1.33;;;0.93;;
62941;SDS011;49042;47.318;19.874;2023-04-15T11:12:50;2.28;;;0.95;;
62941;SDS011;49042;47.318;19.874;2023-04-15T11:15:56;6.05;;;1.05;;
62941;SDS011;49042;47.318;19.874;2023-04-15T11:18:59;2.33;;;1.20;;
62941;SDS011;49042;47.318;19.874;2023-04-15T11:22:05;2.25;;;1.58;;
62941;SDS011;49042;47.318;19.874;2023-04-15T11:25:08;1.40;;;1.25;;
62941;SDS011;49042;47.318;19.874;2023-04-15T11:28:10;2.05;;;1.35;;
62941;SDS011;49042;47.318;19.874;2023-04-15T11:31:32;1.48;;;1.08;;
62941;SDS011;49042;47.318;19.874;2023-04-15T11:34:33;1.65;;;1.30;;
62941;SDS011;49042;47.318;19.874;2023-04-15T11:37:36;2.20;;;1.40;;
62941;SDS011;49042;47.318;19.874;2023-04-15T11:40:39;7.03;;;2.12;;
62941;SDS011;49042;47.318;19.874;2023-04-15T11:43:41;11.68;;;1.52;;
62941;SDS011;49042;47.318;19.874;2023-04-15T11:46:42;2.42;;;1.45;;
62941;SDS011;49042;47.318;19.874;2023-04-15T11:49:45;3.20;;;1.60;;
62941;SDS011;49042;47.318;19.874;2023-04-15T11:55:55;2.62;;;1.50;;
62941;SDS011;49042;47.318;19.874;2023-04-15T11:58:57;1.60;;;1.45;;
62941;SDS011;49042;47.318;19.874;2023-04-15T12:02:09;2.40;;;1.60;;
62941;SDS011;49042;47.318;19.874;2023-04-15T12:05:13;2.12;;;1.62;;
62941;SDS011;49042;47.318;19.874;2023-04-15T12:08:14;1.77;;;1.40;;
62941;SDS011;49042;47.318;19.874;2023-04-15T12:11:16;1.92;;;1.60;;
62941;SDS011;49042;47.318;19.874;2023-04-15T12:14:31;2.62;;;1.65;;
62941;SDS011;49042;47.318;19.874;2023-04-15T12:17:33;3.83;;;3.42;;
62941;SDS011;49042;47.318;19.874;2023-04-15T12:20:55;3.75;;;3.37;;
62941;SDS011;49042;47.318;19.874;2023-04-15T12:24:00;2.15;;;1.60;;
62941;SDS011;49042;47.318;19.874;2023-04-15T12:27:09;1.17;;;1.02;;
62941;SDS011;49042;47.318;19.874;2023-04-15T12:30:12;1.40;;;1.00;;
62941;SDS011;49042;47.318;19.874;2023-04-15T12:33:13;2.03;;;1.50;;
62941;SDS011;49042;47.318;19.874;2023-04-15T12:36:15;2.50;;;1.00;;
62941;SDS011;49042;47.318;19.874;2023-04-15T12:39:20;3.30;;;1.35;;
62941;SDS011;49042;47.318;19.874;2023-04-15T12:42:22;1.65;;;0.90;;
62941;SDS011;49042;47.318;19.874;2023-04-15T12:45:24;0.80;;;0.80;;
62941;SDS011;49042;47.318;19.874;2023-04-15T12:48:28;1.48;;;0.70;;
62941;SDS011;49042;47.318;19.874;2023-04-15T12:51:29;3.40;;;1.05;;
62941;SDS011;49042;47.318;19.874;2023-04-15T12:54:32;1.27;;;0.77;;
62941;SDS011;49042;47.318;19.874;2023-04-15T12:57:34;1.27;;;0.75;;
62941;SDS011;49042;47.318;19.874;2023-04-15T13:00:36;0.70;;;0.70;;
62941;SDS011;49042;47.318;19.874;2023-04-15T13:03:38;1.77;;;1.20;;
62941;SDS011;49042;47.318;19.874;2023-04-15T13:06:41;0.70;;;0.70;;
62941;SDS011;49042;47.318;19.874;2023-04-15T13:09:43;0.68;;;0.60;;
62941;SDS011;49042;47.318;19.874;2023-04-15T13:12:45;0.90;;;0.65;;
62941;SDS011;49042;47.318;19.874;2023-04-15T13:15:48;0.73;;;0.60;;
62941;SDS011;49042;47.318;19.874;2023-04-15T13:18:50;0.77;;;0.70;;
62941;SDS011;49042;47.318;19.874;2023-04-15T13:21:51;0.90;;;0.80;;
62941;SDS011;49042;47.318;19.874;2023-04-15T13:24:53;0.65;;;0.65;;
62941;SDS011;49042;47.318;19.874;2023-04-15T13:27:55;1.00;;;0.75;;
62941;SDS011;49042;47.318;19.874;2023-04-15T13:30:57;1.30;;;0.75;;
62941;SDS011;49042;47.318;19.874;2023-04-15T13:34:00;1.67;;;1.30;;
62941;SDS011;49042;47.318;19.874;2023-04-15T13:37:08;1.15;;;1.02;;
62941;SDS011;49042;47.318;19.874;2023-04-15T13:40:10;2.45;;;0.95;;
62941;SDS011;49042;47.318;19.874;2023-04-15T13:43:12;1.23;;;0.73;;
62941;SDS011;49042;47.318;19.874;2023-04-15T13:46:13;1.10;;;0.90;;
62941;SDS011;49042;47.318;19.874;2023-04-15T13:49:15;6.10;;;2.92;;
62941;SDS011;49042;47.318;19.874;2023-04-15T13:52:17;48.47;;;19.73;;
62941;SDS011;49042;47.318;19.874;2023-04-15T13:55:19;2.55;;;1.75;;
62941;SDS011;49042;47.318;19.874;2023-04-15T13:58:25;0.88;;;0.65;;
62941;SDS011;49042;47.318;19.874;2023-04-15T14:01:27;0.98;;;0.88;;
62941;SDS011;49042;47.318;19.874;2023-04-15T14:04:30;0.70;;;0.68;;
62941;SDS011;49042;47.318;19.874;2023-04-15T14:07:32;0.75;;;0.70;;
62941;SDS011;49042;47.318;19.874;2023-04-15T14:10:34;0.60;;;0.60;;
62941;SDS011;49042;47.318;19.874;2023-04-15T14:13:36;2.58;;;1.62;;
62941;SDS011;49042;47.318;19.874;2023-04-15T14:16:38;1.75;;;1.30;;
62941;SDS011;49042;47.318;19.874;2023-04-15T14:19:40;3.05;;;0.90;;
62941;SDS011;49042;47.318;19.874;2023-04-15T14:22:42;1.27;;;1.12;;
62941;SDS011;49042;47.318;19.874;2023-04-15T14:25:43;1.50;;;1.05;;
62941;SDS011;49042;47.318;19.874;2023-04-15T14:28:48;1.40;;;1.10;;
62941;SDS011;49042;47.318;19.874;2023-04-15T14:31:50;0.70;;;0.60;;
62941;SDS011;49042;47.318;19.874;2023-04-15T14:35:12;0.73;;;0.62;;
62941;SDS011;49042;47.318;19.874;2023-04-15T14:38:14;0.60;;;0.60;;
62941;SDS011;49042;47.318;19.874;2023-04-15T14:41:16;4.00;;;3.17;;
62941;SDS011;49042;47.318;19.874;2023-04-15T14:44:17;0.95;;;0.80;;
62941;SDS011;49042;47.318;19.874;2023-04-15T14:47:19;1.30;;;0.80;;
62941;SDS011;49042;47.318;19.874;2023-04-15T14:50:21;7.40;;;3.20;;
62941;SDS011;49042;47.318;19.874;2023-04-15T14:53:23;4.20;;;1.10;;
62941;SDS011;49042;47.318;19.874;2023-04-15T14:56:25;1.92;;;1.20;;
62941;SDS011;49042;47.318;19.874;2023-04-15T14:59:27;2.33;;;1.40;;
62941;SDS011;49042;47.318;19.874;2023-04-15T15:02:29;2.33;;;1.00;;
62941;SDS011;49042;47.318;19.874;2023-04-15T15:08:42;8.65;;;1.55;;
62941;SDS011;49042;47.318;19.874;2023-04-15T15:11:44;1.50;;;1.40;;
62941;SDS011;49042;47.318;19.874;2023-04-15T15:14:46;5.78;;;1.80;;
62941;SDS011;49042;47.318;19.874;2023-04-15T15:17:48;2.17;;;1.30;;
62941;SDS011;49042;47.318;19.874;2023-04-15T15:20:51;2.25;;;1.10;;
62941;SDS011;49042;47.318;19.874;2023-04-15T15:23:52;1.33;;;1.00;;
62941;SDS011;49042;47.318;19.874;2023-04-15T15:26:54;1.15;;;1.05;;
62941;SDS011;49042;47.318;19.874;2023-04-15T15:29:57;14.43;;;7.22;;
62941;SDS011;49042;47.318;19.874;2023-04-15T15:32:59;13.18;;;8.32;;
62941;SDS011;49042;47.318;19.874;2023-04-15T15:36:00;2.33;;;1.87;;
62941;SDS011;49042;47.318;19.874;2023-04-15T15:39:03;2.53;;;2.10;;
62941;SDS011;49042;47.318;19.874;2023-04-15T15:42:06;2.40;;;1.85;;
62941;SDS011;49042;47.318;19.874;2023-04-15T15:45:08;2.35;;;1.37;;
62941;SDS011;49042;47.318;19.874;2023-04-15T15:48:10;1.25;;;1.10;;
62941;SDS011;49042;47.318;19.874;2023-04-15T15:51:12;1.20;;;1.10;;
62941;SDS011;49042;47.318;19.874;2023-04-15T15:54:14;1.23;;;1.00;;
62941;SDS011;49042;47.318;19.874;2023-04-15T15:57:15;1.70;;;1.27;;
62941;SDS011;49042;47.318;19.874;2023-04-15T16:00:17;3.10;;;1.37;;
62941;SDS011;49042;47.318;19.874;2023-04-15T16:03:19;1.17;;;1.05;;
62941;SDS011;49042;47.318;19.874;2023-04-15T16:06:21;1.45;;;1.00;;
62941;SDS011;49042;47.318;19.874;2023-04-15T16:09:23;2.08;;;1.10;;
62941;SDS011;49042;47.318;19.874;2023-04-15T16:12:24;2.33;;;1.08;;
62941;SDS011;49042;47.318;19.874;2023-04-15T16:15:27;2.42;;;1.50;;
62941;SDS011;49042;47.318;19.874;2023-04-15T16:18:29;3.85;;;2.40;;
62941;SDS011;49042;47.318;19.874;2023-04-15T16:21:33;3.35;;;2.40;;
62941;SDS011;49042;47.318;19.874;2023-04-15T16:24:35;1.58;;;1.10;;
62941;SDS011;49042;47.318;19.874;2023-04-15T16:27:37;14.00;;;7.35;;
62941;SDS011;49042;47.318;19.874;2023-04-15T16:30:42;12.35;;;5.87;;
62941;SDS011;49042;47.318;19.874;2023-04-15T16:33:44;6.47;;;3.20;;
62941;SDS011;49042;47.318;19.874;2023-04-15T16:36:46;7.50;;;3.90;;
62941;SDS011;49042;47.318;19.874;2023-04-15T16:39:48;3.60;;;2.15;;
62941;SDS011;49042;47.318;19.874;2023-04-15T16:42:50;4.43;;;1.50;;
62941;SDS011;49042;47.318;19.874;2023-04-15T16:45:52;1.67;;;1.35;;
62941;SDS011;49042;47.318;19.874;2023-04-15T16:48:54;2.35;;;1.35;;
62941;SDS011;49042;47.318;19.874;2023-04-15T16:51:57;1.08;;;0.98;;
62941;SDS011;49042;47.318;19.874;2023-04-15T16:54:59;1.73;;;1.10;;
62941;SDS011;49042;47.318;19.874;2023-04-15T16:58:00;2.95;;;1.20;;
62941;SDS011;49042;47.318;19.874;2023-04-15T17:01:05;1.50;;;1.20;;
62941;SDS011;49042;47.318;19.874;2023-04-15T17:04:07;1.70;;;1.20;;
62941;SDS011;49042;47.318;19.874;2023-04-15T17:07:09;1.98;;;1.30;;
62941;SDS011;49042;47.318;19.874;2023-04-15T17:10:12;1.33;;;1.15;;
62941;SDS011;49042;47.318;19.874;2023-04-15T17:13:16;2.30;;;1.42;;
62941;SDS011;49042;47.318;19.874;2023-04-15T17:16:18;2.45;;;1.45;;
62941;SDS011;49042;47.318;19.874;2023-04-15T17:19:20;2.17;;;1.42;;
62941;SDS011;49042;47.318;19.874;2023-04-15T17:22:22;2.30;;;1.75;;
62941;SDS011;49042;47.318;19.874;2023-04-15T17:25:24;2.58;;;2.00;;
62941;SDS011;49042;47.318;19.874;2023-04-15T17:28:25;6.20;;;1.55;;
62941;SDS011;49042;47.318;19.874;2023-04-15T17:31:28;4.82;;;1.70;;
62941;SDS011;49042;47.318;19.874;2023-04-15T17:34:30;3.22;;;1.87;;
62941;SDS011;49042;47.318;19.874;2023-04-15T17:37:51;3.42;;;2.20;;
62941;SDS011;49042;47.318;19.874;2023-04-15T17:40:53;3.60;;;2.10;;
62941;SDS011;49042;47.318;19.874;2023-04-15T17:43:55;4.00;;;2.03;;
62941;SDS011;49042;47.318;19.874;2023-04-15T17:46:57;8.68;;;4.03;;
62941;SDS011;49042;47.318;19.874;2023-04-15T17:49:59;32.83;;;10.73;;
62941;SDS011;49042;47.318;19.874;2023-04-15T17:53:02;109.80;;;40.60;;
62941;SDS011;49042;47.318;19.874;2023-04-15T17:56:04;82.72;;;31.42;;
62941;SDS011;49042;47.318;19.874;2023-04-15T17:59:06;60.05;;;23.50;;
62941;SDS011;49042;47.318;19.874;2023-04-15T18:02:10;77.20;;;25.90;;
62941;SDS011;49042;47.318;19.874;2023-04-15T18:05:15;59.75;;;23.20;;
62941;SDS011;49042;47.318;19.874;2023-04-15T18:08:20;39.78;;;19.10;;